• Join FlightAware (Why Join?)
  • Login
  • US Flag 
02:55PM EST


 

Airport Tracker/Info


-or-


 

Live Flight TrackerFlight Track Log ✈ AAL2345 ✈ 23-Apr-2013 ✈ KORD - KDFW

Flight Track Log - Related Links

Times and Time Zones

All times are in EDT time to prevent confusion due to time zone crossing. See the AAL2345 flight status page for this flight to view local times or setup timezone preferences in your user account.

Time Position Orientation Groundspeed Altitude Reporting Facility
EDT Latitude Longitude Course Direction KTS MPH feet Rate Location/Type
06:55PM 41.9500 -87.9167 169° South 187 215 1,600  Level Chicago TRACON
06:56PM 41.9000 -87.9333 194° South 203 234 3,700 2,400 Climbing Chicago TRACON
06:57PM 41.7758 -88.1503 201° Southwest  Level Estimated
06:57PM 41.8244 -87.9625 196° South 221 254 7,100  Level Chicago Center
06:58PM 41.6879 -88.1167 164° South  Level FlightAware Approximate
06:58PM 41.7497 -88.0050 203° Southwest 242 278 10,700  Level Chicago Center
06:59PM 41.6195 -88.1981 197° South  Level Estimated
06:59PM 41.6836 -88.0392 201° Southwest 252 290 12,700  Level Chicago Center
07:00PM 41.5298 -88.1749 169° South  Level FlightAware Approximate
07:00PM 41.6028 -88.0772 199° South 307 353 13,900  Level Chicago Center
07:01PM 41.5181 -88.1203 201° Southwest 329 379 16,100 2,100 Climbing Chicago Center
07:02PM 41.4172 -88.1722 201° Southwest 337 388 18,300 1,860 Climbing Chicago Center
07:03PM 41.3272 -88.2161 200° South 352 405 20,000 1,560 Climbing Chicago Center
07:04PM 41.2339 -88.2572 198° South 356 410 21,600 1,320 Climbing Chicago Center
07:05PM 41.1517 -88.3225 211° Southwest 349 402 22,800 1,320 Climbing Chicago Center
07:06PM 41.0761 -88.4081 220° Southwest 352 405 24,400 1,320 Climbing Chicago Center
07:07PM 40.9853 -88.5103 220° Southwest 358 412 25,600 960 Climbing Chicago Center
07:08PM 40.8958 -88.5825 211° Southwest 375 432 26,400 900 Climbing Chicago Center
07:09PM 40.8042 -88.6550 211° Southwest 385 443 27,500 1,140 Climbing Chicago Center
07:10PM 40.7114 -88.7253 210° Southwest 386 444 28,800 1,200 Climbing Chicago Center
07:11PM 40.6197 -88.7964 210° Southwest 385 443 30,000 1,200 Climbing Chicago Center
07:12PM 40.5250 -88.8669 210° Southwest 376 433 31,400 960 Climbing Chicago Center
07:14PM 40.4353 -88.9356 210° Southwest 373 429 32,000 240 Climbing Chicago Center
07:15PM 40.3247 -89.0186 210° Southwest 378 435 32,000 240 Level Chicago Center
07:16PM 40.2314 -89.0894 210° Southwest 385 443 32,600 780 Climbing Chicago Center
07:17PM 40.1417 -89.1578 210° Southwest 375 432 33,700 720 Climbing Chicago Center
07:17PM 40.0683 -89.2119 209° Southwest 372 428 34,000 120 Climbing Kansas City Center
07:18PM 39.9767 -89.2803 210° Southwest 375 432 34,000  Level Kansas City Center
07:20PM 39.8883 -89.3536 213° Southwest 375 432 34,000  Level Kansas City Center
07:21PM 39.8111 -89.4458 223° Southwest 377 434 34,000  Level Kansas City Center
07:22PM 39.7339 -89.5353 222° Southwest 373 429 34,000  Level Kansas City Center
07:23PM 39.6561 -89.6267 222° Southwest 373 429 34,000  Level Kansas City Center
07:24PM 39.5644 -89.7339 222° Southwest 372 428 34,000  Level Kansas City Center
07:25PM 39.4875 -89.8211 221° Southwest 370 426 34,000  Level Kansas City Center
07:26PM 39.4108 -89.9097 222° Southwest 370 426 34,000  Level Kansas City Center
07:27PM 39.3331 -89.9978 221° Southwest 371 427 34,000  Level Kansas City Center
07:28PM 39.2567 -90.0844 221° Southwest 369 425 34,000  Level Kansas City Center
07:29PM 39.1792 -90.1711 221° Southwest 368 423 34,000  Level Kansas City Center
07:30PM 39.0869 -90.2736 221° Southwest 367 422 34,000  Level Kansas City Center
07:31PM 39.0097 -90.3600 221° Southwest 368 423 34,000  Level Kansas City Center
07:32PM 38.9347 -90.4378 219° Southwest 363 418 34,000  Level Kansas City Center
07:33PM 38.8594 -90.5278 223° Southwest 363 418 34,000  Level Kansas City Center
07:34PM 38.7794 -90.6103 219° Southwest 362 417 34,000  Level Kansas City Center
07:35PM 38.6875 -90.7172 222° Southwest 388 447 34,000  Level Kansas City Center
07:36PM 38.6103 -90.8011 220° Southwest 378 435 34,000  Level Kansas City Center
07:37PM 38.5333 -90.8856 221° Southwest 371 427 34,000  Level Kansas City Center
07:38PM 38.4547 -90.9711 220° Southwest 372 428 34,000  Level Kansas City Center
07:39PM 38.3750 -91.0575 220° Southwest 377 434 34,000  Level Kansas City Center
07:40PM 38.2967 -91.1422 220° Southwest 373 429 34,000  Level Kansas City Center
07:41PM 38.2014 -91.2458 221° Southwest 376 433 34,000  Level Kansas City Center
07:42PM 38.1306 -91.3214 220° Southwest 374 430 34,000  Level Kansas City Center
07:43PM 38.0517 -91.4064 220° Southwest 371 427 34,000  Level Kansas City Center
07:44PM 37.9719 -91.4925 220° Southwest 372 428 34,000  Level Kansas City Center
07:45PM 37.8756 -91.5947 220° Southwest 373 429 34,000  Level Kansas City Center
07:46PM 37.7978 -91.6806 221° Southwest 369 425 34,000  Level Kansas City Center
07:47PM 37.7181 -91.7658 220° Southwest 370 426 34,000  Level Kansas City Center
07:48PM 37.6389 -91.8519 221° Southwest 371 427 34,000  Level Kansas City Center
07:49PM 37.5586 -91.9367 220° Southwest 371 427 34,000  Level Kansas City Center
07:50PM 37.4783 -92.0233 221° Southwest 374 430 34,000  Level Kansas City Center
07:51PM 37.4006 -92.1106 222° Southwest 373 429 34,000  Level Kansas City Center
07:52PM 37.3219 -92.1978 221° Southwest 373 429 34,000  Level Kansas City Center
07:54PM 37.2442 -92.2861 222° Southwest 374 430 34,000  Level Kansas City Center
07:55PM 37.1661 -92.3733 222° Southwest 373 429 34,000  Level Kansas City Center
07:56PM 37.0867 -92.4586 221° Southwest 373 429 34,000  Level Kansas City Center
07:57PM 36.9933 -92.5631 222° Southwest 372 428 34,000  Level Kansas City Center
07:58PM 36.9150 -92.6489 221° Southwest 372 428 34,000  Level Kansas City Center
07:59PM 36.8356 -92.7333 220° Southwest 372 428 34,000  Level Kansas City Center
07:59PM 36.8194 -92.7517 222° Southwest 372 428 34,000  Level Memphis Center
08:00PM 36.7425 -92.8400 223° Southwest 372 428 34,000 -300 Level Memphis Center
08:01PM 36.6661 -92.9203 220° Southwest 372 428 33,500 -720 Descending Memphis Center
08:02PM 36.5872 -93.0058 221° Southwest 372 428 32,600 -780 Descending Memphis Center
08:03PM 36.5103 -93.0911 222° Southwest 372 428 32,000 -300 Descending Memphis Center
08:04PM 36.4292 -93.1708 218° Southwest 372 428 32,000  Level Memphis Center
08:05PM 36.3522 -93.2558 222° Southwest 372 428 32,000  Level Memphis Center
08:06PM 36.2708 -93.3431 221° Southwest 372 428 32,000  Level Memphis Center
08:07PM 36.1939 -93.4250 221° Southwest 372 428 32,000  Level Memphis Center
08:08PM 36.1147 -93.5069 220° Southwest 372 428 32,000  Level Memphis Center
08:09PM 36.0356 -93.5911 221° Southwest 372 428 32,000  Level Memphis Center
08:10PM 35.9581 -93.6778 222° Southwest 372 428 32,000  Level Memphis Center
08:11PM 35.8767 -93.7592 219° Southwest 372 428 32,000  Level Memphis Center
08:12PM 35.7972 -93.8456 221° Southwest 372 428 32,000  Level Memphis Center
08:13PM 35.7178 -93.9264 220° Southwest 377 434 32,000  Level Memphis Center
08:14PM 35.6381 -94.0125 221° Southwest 377 434 32,000  Level Memphis Center
08:15PM 35.5606 -94.0933 220° Southwest 372 428 32,000  Level Memphis Center
08:16PM 35.4789 -94.1764 220° Southwest 372 428 32,000  Level Memphis Center
08:17PM 35.3969 -94.2592 219° Southwest 372 428 32,000  Level Memphis Center
08:18PM 35.3169 -94.3469 222° Southwest 377 434 32,000  Level Memphis Center
08:20PM 35.1542 -94.5289 222° Southwest 364 419 32,000  Level Fort Worth Center
08:21PM 35.0728 -94.6156 221° Southwest 364 419 32,000  Level Fort Worth Center
08:22PM 35.0117 -94.6858 223° Southwest 358 412 32,000  Level Fort Worth Center
08:23PM 34.9381 -94.7592 219° Southwest 358 412 32,000  Level Fort Worth Center
08:24PM 34.8608 -94.8503 224° Southwest 358 412 32,000  Level Fort Worth Center
08:25PM 34.7892 -94.9256 221° Southwest 358 412 32,000  Level Fort Worth Center
08:26PM 34.7114 -94.9911 215° Southwest 358 412 32,000  Level Fort Worth Center
08:27PM 34.6083 -94.9561 164° South 337 388 32,000  Level Fort Worth Center
08:28PM 34.5067 -94.8758 147° Southeast 367 422 32,000  Level Fort Worth Center
08:29PM 34.4131 -94.7881 142° Southeast 394 453 32,000  Level Fort Worth Center
08:30PM 34.3114 -94.7131 149° Southeast 416 479 32,000  Level Fort Worth Center
08:31PM 34.2133 -94.6258 144° Southeast 427 491 32,000  Level Fort Worth Center
08:32PM 34.1133 -94.5436 146° Southeast 432 497 32,000 -120 Level Fort Worth Center
08:33PM 34.0106 -94.5094 165° South 397 457 31,800 -540 Descending Fort Worth Center
08:34PM 33.9453 -94.5869 225° Southwest 288 331 31,000 -900 Descending Fort Worth Center
08:35PM 33.9769 -94.6861 291° West 208 239 30,100 -960 Descending Fort Worth Center
08:36PM 34.0797 -94.7128 348° North 221 254 29,100 -1,020 Descending Fort Worth Center
08:37PM 34.1903 -94.7119 360° North 298 343 28,100 -1,020 Descending Fort Worth Center
08:38PM 34.2867 -94.7339 349° North 338 389 27,100 -1,020 Descending Fort Worth Center
08:39PM 34.3200 -94.8286 293° West 295 339 26,100 -1,020 Descending Fort Worth Center
08:40PM 34.3303 -94.9314 277° West 274 315 25,100 -1,020 Descending Fort Worth Center
08:41PM 34.3469 -95.0289 282° West 280 322 24,100 -600 Descending Fort Worth Center
08:42PM 34.3572 -95.1292 277° West 296 341 24,000 -60 Descending Fort Worth Center
08:43PM 34.3211 -95.2133 243° Southwest 290 334 24,000  Level Fort Worth Center
08:44PM 34.2639 -95.2925 229° Southwest 283 326 24,000  Level Fort Worth Center
08:45PM 34.1986 -95.3744 226° Southwest 316 364 24,000  Level Fort Worth Center
08:46PM 34.1372 -95.4564 228° Southwest 335 386 24,000 -60 Level Fort Worth Center
08:47PM 34.0717 -95.5406 227° Southwest 341 392 23,900 -540 Descending Fort Worth Center
08:48PM 34.0103 -95.6219 228° Southwest 341 392 23,000 -900 Descending Fort Worth Center
08:49PM 33.9489 -95.7083 229° Southwest 341 392 22,100 -1,020 Descending Fort Worth Center
08:50PM 33.8853 -95.7847 225° Southwest 341 392 21,000 -1,200 Descending Fort Worth Center
08:51PM 33.8258 -95.8658 229° Southwest 336 387 19,700 -1,200 Descending Fort Worth Center
08:52PM 33.7681 -95.9367 226° Southwest 331 381 18,600 -1,140 Descending Fort Worth Center
08:53PM 33.7022 -96.0203 227° Southwest 321 369 17,500 -1,200 Descending Fort Worth Center
08:54PM 33.6508 -96.0883 228° Southwest 315 362 16,300 -1,260 Descending Fort Worth Center
08:55PM 33.5869 -96.1717 227° Southwest 315 362 15,000 -1,260 Descending Fort Worth Center
08:56PM 33.5375 -96.2372 228° Southwest 315 362 13,800 -1,200 Descending Fort Worth Center
08:57PM 33.4714 -96.3153 225° Southwest 315 362 12,700 -1,080 Descending Fort Worth Center
08:58PM 33.4178 -96.3781 224° Southwest 301 346 11,700 -900 Descending Fort Worth Center
08:59PM 33.3578 -96.4508 225° Southwest 301 346 11,000 -360 Descending Fort Worth Center
09:00PM 33.3122 -96.5036 224° Southwest 269 310 11,000  Level Fort Worth Center
09:01PM 33.2586 -96.5689 226° Southwest 258 297 11,000  Level Fort Worth Center
09:02PM 33.2089 -96.6264 224° Southwest 251 289 11,000  Level Fort Worth Center
09:03PM 33.1631 -96.6814 225° Southwest 251 289 11,000  Level Fort Worth Center
09:04PM 33.1114 -96.7464 227° Southwest 251 289 11,000  Level Fort Worth Center
09:05PM 33.0833 -96.7833 228° Southwest 256 295 11,000  Level Dallas / Fort Worth TRACON
09:06PM 33.0333 -96.8333 220° Southwest 255 293 11,000  Level Dallas / Fort Worth TRACON
09:07PM 32.9833 -96.8833 220° Southwest 216 249 11,000 -300 Level Dallas / Fort Worth TRACON
09:08PM 32.9167 -96.9000 192° South 226 260 10,400 -960 Descending Dallas / Fort Worth TRACON
09:09PM 32.8500 -96.9000 180° South 229 264 9,000 -1,380 Descending Dallas / Fort Worth TRACON
09:10PM 32.8000 -96.9000 180° South 218 251 7,700 -1,320 Descending Dallas / Fort Worth TRACON
09:11PM 32.7333 -96.9167 192° South 213 245 6,400 -900 Descending Dallas / Fort Worth TRACON
09:12PM 32.6833 -96.9167 180° South 209 241 6,000 -480 Descending Dallas / Fort Worth TRACON
09:13PM 32.6167 -96.9167 180° South 209 241 5,500 -660 Descending Dallas / Fort Worth TRACON
09:14PM 32.6000 -96.9667 248° West 218 251 4,700 -840 Descending Dallas / Fort Worth TRACON
09:15PM 32.6333 -97.0000 320° Northwest 223 257 4,000 -360 Descending Dallas / Fort Worth TRACON
09:16PM 32.7000 -97.0167 348° North 185 213 4,000 -420 Level Dallas / Fort Worth TRACON
09:17PM 32.7500 -97.0167 360° North 180 207 3,200 -900 Descending Dallas / Fort Worth TRACON
09:18PM 32.7833 -97.0167 360° North 151 174 2,300 -900 Descending Dallas / Fort Worth TRACON